sensor_id;sensor_type;location;lat;lon;timestamp;temperature;humidity
11214;DHT22;5664;48.606;13.456;2024-01-25T00:01:26;16.00;81.90
11214;DHT22;5664;48.606;13.456;2024-01-25T00:03:52;16.00;81.90
11214;DHT22;5664;48.606;13.456;2024-01-25T00:06:18;15.90;81.90
11214;DHT22;5664;48.606;13.456;2024-01-25T00:08:43;15.90;81.90
11214;DHT22;5664;48.606;13.456;2024-01-25T00:11:09;16.00;82.00
11214;DHT22;5664;48.606;13.456;2024-01-25T00:13:34;15.90;82.10
11214;DHT22;5664;48.606;13.456;2024-01-25T00:16:00;15.90;82.10
11214;DHT22;5664;48.606;13.456;2024-01-25T00:18:25;15.90;82.10
11214;DHT22;5664;48.606;13.456;2024-01-25T00:20:51;15.90;82.10
11214;DHT22;5664;48.606;13.456;2024-01-25T00:23:17;15.90;82.00
11214;DHT22;5664;48.606;13.456;2024-01-25T00:25:42;16.90;83.80
11214;DHT22;5664;48.606;13.456;2024-01-25T00:28:08;15.90;82.10
11214;DHT22;5664;48.606;13.456;2024-01-25T00:30:33;15.80;82.00
11214;DHT22;5664;48.606;13.456;2024-01-25T00:32:59;15.80;82.00
11214;DHT22;5664;48.606;13.456;2024-01-25T00:35:24;15.80;82.10
11214;DHT22;5664;48.606;13.456;2024-01-25T00:37:50;15.80;82.10
11214;DHT22;5664;48.606;13.456;2024-01-25T00:40:16;15.80;82.10
11214;DHT22;5664;48.606;13.456;2024-01-25T00:42:42;15.80;82.10
11214;DHT22;5664;48.606;13.456;2024-01-25T00:45:08;15.80;82.10
11214;DHT22;5664;48.606;13.456;2024-01-25T00:47:34;15.80;82.20
11214;DHT22;5664;48.606;13.456;2024-01-25T00:49:59;15.80;82.20
11214;DHT22;5664;48.606;13.456;2024-01-25T00:52:25;15.80;82.20
11214;DHT22;5664;48.606;13.456;2024-01-25T00:54:50;15.70;82.20
11214;DHT22;5664;48.606;13.456;2024-01-25T00:57:16;15.70;82.20
11214;DHT22;5664;48.606;13.456;2024-01-25T00:59:42;15.70;82.20
11214;DHT22;5664;48.606;13.456;2024-01-25T01:02:10;15.80;82.40
11214;DHT22;5664;48.606;13.456;2024-01-25T01:04:36;15.70;82.30
11214;DHT22;5664;48.606;13.456;2024-01-25T01:07:02;15.70;82.30
11214;DHT22;5664;48.606;13.456;2024-01-25T01:09:28;15.70;82.40
11214;DHT22;5664;48.606;13.456;2024-01-25T01:11:53;15.70;82.40
11214;DHT22;5664;48.606;13.456;2024-01-25T01:14:19;15.70;82.40
11214;DHT22;5664;48.606;13.456;2024-01-25T01:16:44;15.70;82.40
11214;DHT22;5664;48.606;13.456;2024-01-25T01:19:09;15.70;82.40
11214;DHT22;5664;48.606;13.456;2024-01-25T01:21:35;15.60;82.40
11214;DHT22;5664;48.606;13.456;2024-01-25T01:24:01;15.70;82.50
11214;DHT22;5664;48.606;13.456;2024-01-25T01:26:27;15.70;82.50
11214;DHT22;5664;48.606;13.456;2024-01-25T01:28:52;15.60;82.40
11214;DHT22;5664;48.606;13.456;2024-01-25T01:31:17;15.60;82.40
11214;DHT22;5664;48.606;13.456;2024-01-25T01:33:43;15.60;82.40
11214;DHT22;5664;48.606;13.456;2024-01-25T01:36:08;15.60;82.40
11214;DHT22;5664;48.606;13.456;2024-01-25T01:38:34;15.60;82.40
11214;DHT22;5664;48.606;13.456;2024-01-25T01:40:59;15.60;82.40
11214;DHT22;5664;48.606;13.456;2024-01-25T01:43:25;15.60;82.40
11214;DHT22;5664;48.606;13.456;2024-01-25T01:45:50;15.60;82.40
11214;DHT22;5664;48.606;13.456;2024-01-25T01:48:16;15.50;82.40
11214;DHT22;5664;48.606;13.456;2024-01-25T01:50:45;15.60;82.50
11214;DHT22;5664;48.606;13.456;2024-01-25T01:53:10;15.50;82.40
11214;DHT22;5664;48.606;13.456;2024-01-25T01:55:36;15.50;82.50
11214;DHT22;5664;48.606;13.456;2024-01-25T01:58:02;15.50;82.40
11214;DHT22;5664;48.606;13.456;2024-01-25T02:00:28;15.50;82.50
11214;DHT22;5664;48.606;13.456;2024-01-25T02:02:54;15.60;82.60
11214;DHT22;5664;48.606;13.456;2024-01-25T02:05:19;15.50;82.50
11214;DHT22;5664;48.606;13.456;2024-01-25T02:07:45;15.50;82.40
11214;DHT22;5664;48.606;13.456;2024-01-25T02:10:10;15.50;82.50
11214;DHT22;5664;48.606;13.456;2024-01-25T02:12:36;15.50;82.50
11214;DHT22;5664;48.606;13.456;2024-01-25T02:15:02;15.50;82.50
11214;DHT22;5664;48.606;13.456;2024-01-25T02:17:28;15.50;82.60
11214;DHT22;5664;48.606;13.456;2024-01-25T02:19:53;15.40;82.50
11214;DHT22;5664;48.606;13.456;2024-01-25T02:22:19;15.40;82.50
11214;DHT22;5664;48.606;13.456;2024-01-25T02:24:44;15.40;82.60
11214;DHT22;5664;48.606;13.456;2024-01-25T02:27:10;15.40;82.60
11214;DHT22;5664;48.606;13.456;2024-01-25T02:29:35;15.40;82.60
11214;DHT22;5664;48.606;13.456;2024-01-25T02:32:01;15.40;82.70
11214;DHT22;5664;48.606;13.456;2024-01-25T02:34:26;15.40;82.60
11214;DHT22;5664;48.606;13.456;2024-01-25T02:36:52;15.50;82.70
11214;DHT22;5664;48.606;13.456;2024-01-25T02:39:17;15.40;82.70
11214;DHT22;5664;48.606;13.456;2024-01-25T02:41:43;15.40;82.70
11214;DHT22;5664;48.606;13.456;2024-01-25T02:44:08;15.30;82.70
11214;DHT22;5664;48.606;13.456;2024-01-25T02:46:34;15.30;82.70
11214;DHT22;5664;48.606;13.456;2024-01-25T02:48:59;15.30;82.70
11214;DHT22;5664;48.606;13.456;2024-01-25T02:51:24;15.30;82.70
11214;DHT22;5664;48.606;13.456;2024-01-25T02:53:50;15.40;82.70
11214;DHT22;5664;48.606;13.456;2024-01-25T02:56:15;15.30;82.70
11214;DHT22;5664;48.606;13.456;2024-01-25T02:58:41;15.30;82.70
11214;DHT22;5664;48.606;13.456;2024-01-25T03:01:06;15.30;82.70
11214;DHT22;5664;48.606;13.456;2024-01-25T03:03:32;15.30;82.70
11214;DHT22;5664;48.606;13.456;2024-01-25T03:05:57;15.30;82.70
11214;DHT22;5664;48.606;13.456;2024-01-25T03:08:23;15.30;82.70
11214;DHT22;5664;48.606;13.456;2024-01-25T03:10:48;15.30;82.70
11214;DHT22;5664;48.606;13.456;2024-01-25T03:13:17;15.30;82.70
11214;DHT22;5664;48.606;13.456;2024-01-25T03:15:43;15.30;82.80
11214;DHT22;5664;48.606;13.456;2024-01-25T03:18:09;15.30;82.80
11214;DHT22;5664;48.606;13.456;2024-01-25T03:20:34;15.20;82.80
11214;DHT22;5664;48.606;13.456;2024-01-25T03:23:00;15.20;82.70
11214;DHT22;5664;48.606;13.456;2024-01-25T03:25:25;15.20;82.80
11214;DHT22;5664;48.606;13.456;2024-01-25T03:27:51;15.30;82.80
11214;DHT22;5664;48.606;13.456;2024-01-25T03:30:16;15.20;82.80
11214;DHT22;5664;48.606;13.456;2024-01-25T03:32:42;15.50;84.30
11214;DHT22;5664;48.606;13.456;2024-01-25T03:35:07;15.20;82.80
11214;DHT22;5664;48.606;13.456;2024-01-25T03:37:33;15.20;82.80
11214;DHT22;5664;48.606;13.456;2024-01-25T03:39:58;15.20;82.90
11214;DHT22;5664;48.606;13.456;2024-01-25T03:42:24;15.20;82.80
11214;DHT22;5664;48.606;13.456;2024-01-25T03:44:49;15.20;82.80
11214;DHT22;5664;48.606;13.456;2024-01-25T03:47:15;15.10;82.80
11214;DHT22;5664;48.606;13.456;2024-01-25T03:49:40;15.20;82.90
11214;DHT22;5664;48.606;13.456;2024-01-25T03:52:06;15.10;82.80
11214;DHT22;5664;48.606;13.456;2024-01-25T03:54:31;15.10;82.80
11214;DHT22;5664;48.606;13.456;2024-01-25T03:56:57;15.20;82.90
11214;DHT22;5664;48.606;13.456;2024-01-25T03:59:22;15.10;82.80
11214;DHT22;5664;48.606;13.456;2024-01-25T04:01:48;15.20;82.90
11214;DHT22;5664;48.606;13.456;2024-01-25T04:04:14;15.10;82.80
11214;DHT22;5664;48.606;13.456;2024-01-25T04:06:43;15.10;82.90
11214;DHT22;5664;48.606;13.456;2024-01-25T04:09:09;15.20;83.00
11214;DHT22;5664;48.606;13.456;2024-01-25T04:11:38;15.20;83.00
11214;DHT22;5664;48.606;13.456;2024-01-25T04:14:04;15.10;82.90
11214;DHT22;5664;48.606;13.456;2024-01-25T04:16:29;15.10;83.00
11214;DHT22;5664;48.606;13.456;2024-01-25T04:18:55;15.00;82.90
11214;DHT22;5664;48.606;13.456;2024-01-25T04:21:21;15.10;83.00
11214;DHT22;5664;48.606;13.456;2024-01-25T04:23:46;15.10;83.80
11214;DHT22;5664;48.606;13.456;2024-01-25T04:26:12;15.10;83.60
11214;DHT22;5664;48.606;13.456;2024-01-25T04:28:37;15.00;82.90
11214;DHT22;5664;48.606;13.456;2024-01-25T04:31:02;15.10;83.00
11214;DHT22;5664;48.606;13.456;2024-01-25T04:33:29;15.00;83.00
11214;DHT22;5664;48.606;13.456;2024-01-25T04:35:54;15.00;83.00
11214;DHT22;5664;48.606;13.456;2024-01-25T04:38:20;15.00;83.00
11214;DHT22;5664;48.606;13.456;2024-01-25T04:40:45;15.00;83.00
11214;DHT22;5664;48.606;13.456;2024-01-25T04:43:11;15.00;83.00
11214;DHT22;5664;48.606;13.456;2024-01-25T04:45:37;15.00;83.20
11214;DHT22;5664;48.606;13.456;2024-01-25T04:48:03;15.00;83.10
11214;DHT22;5664;48.606;13.456;2024-01-25T04:50:28;15.00;83.00
11214;DHT22;5664;48.606;13.456;2024-01-25T04:52:54;15.00;83.10
11214;DHT22;5664;48.606;13.456;2024-01-25T04:55:19;15.10;83.10
11214;DHT22;5664;48.606;13.456;2024-01-25T04:57:45;15.00;83.10
11214;DHT22;5664;48.606;13.456;2024-01-25T05:00:11;15.00;83.80
11214;DHT22;5664;48.606;13.456;2024-01-25T05:02:36;15.00;82.40
11214;DHT22;5664;48.606;13.456;2024-01-25T05:05:02;15.00;83.00
11214;DHT22;5664;48.606;13.456;2024-01-25T05:07:27;15.00;83.20
11214;DHT22;5664;48.606;13.456;2024-01-25T05:09:53;14.90;83.00
11214;DHT22;5664;48.606;13.456;2024-01-25T05:12:18;14.90;83.00
11214;DHT22;5664;48.606;13.456;2024-01-25T05:14:44;14.90;83.10
11214;DHT22;5664;48.606;13.456;2024-01-25T05:17:09;14.90;83.10
11214;DHT22;5664;48.606;13.456;2024-01-25T05:19:35;15.00;83.10
11214;DHT22;5664;48.606;13.456;2024-01-25T05:22:00;14.90;83.00
11214;DHT22;5664;48.606;13.456;2024-01-25T05:24:26;14.90;83.00
11214;DHT22;5664;48.606;13.456;2024-01-25T05:26:52;14.90;83.10
11214;DHT22;5664;48.606;13.456;2024-01-25T05:29:17;14.90;83.10
11214;DHT22;5664;48.606;13.456;2024-01-25T05:31:43;14.90;83.10
11214;DHT22;5664;48.606;13.456;2024-01-25T05:34:08;14.90;83.10
11214;DHT22;5664;48.606;13.456;2024-01-25T05:36:34;14.80;83.00
11214;DHT22;5664;48.606;13.456;2024-01-25T05:38:59;14.80;83.00
11214;DHT22;5664;48.606;13.456;2024-01-25T05:41:25;14.80;83.10
11214;DHT22;5664;48.606;13.456;2024-01-25T05:43:50;14.80;83.00
11214;DHT22;5664;48.606;13.456;2024-01-25T05:46:16;15.00;83.20
11214;DHT22;5664;48.606;13.456;2024-01-25T05:48:41;14.60;84.20
11214;DHT22;5664;48.606;13.456;2024-01-25T05:51:07;14.80;83.00
11214;DHT22;5664;48.606;13.456;2024-01-25T05:53:32;14.80;83.20
11214;DHT22;5664;48.606;13.456;2024-01-25T05:55:58;14.80;83.10
11214;DHT22;5664;48.606;13.456;2024-01-25T05:58:24;14.80;83.10
11214;DHT22;5664;48.606;13.456;2024-01-25T06:00:50;14.80;83.10
11214;DHT22;5664;48.606;13.456;2024-01-25T06:03:15;14.80;83.10
11214;DHT22;5664;48.606;13.456;2024-01-25T06:05:41;14.80;83.10
11214;DHT22;5664;48.606;13.456;2024-01-25T06:08:06;14.80;83.20
11214;DHT22;5664;48.606;13.456;2024-01-25T06:10:32;14.80;83.10
11214;DHT22;5664;48.606;13.456;2024-01-25T06:12:57;14.80;83.20
11214;DHT22;5664;48.606;13.456;2024-01-25T06:15:23;14.80;83.10
11214;DHT22;5664;48.606;13.456;2024-01-25T06:17:48;14.70;83.10
11214;DHT22;5664;48.606;13.456;2024-01-25T06:20:14;14.70;83.10
11214;DHT22;5664;48.606;13.456;2024-01-25T06:22:39;14.70;83.10
11214;DHT22;5664;48.606;13.456;2024-01-25T06:25:05;14.70;83.10
11214;DHT22;5664;48.606;13.456;2024-01-25T06:27:30;14.70;83.10
11214;DHT22;5664;48.606;13.456;2024-01-25T06:29:56;14.70;83.10
11214;DHT22;5664;48.606;13.456;2024-01-25T06:32:21;14.70;83.20
11214;DHT22;5664;48.606;13.456;2024-01-25T06:34:47;14.70;83.20
11214;DHT22;5664;48.606;13.456;2024-01-25T06:37:12;14.60;83.20
11214;DHT22;5664;48.606;13.456;2024-01-25T06:39:40;14.60;83.30
11214;DHT22;5664;48.606;13.456;2024-01-25T06:42:06;14.70;83.30
11214;DHT22;5664;48.606;13.456;2024-01-25T06:44:31;14.70;83.30
11214;DHT22;5664;48.606;13.456;2024-01-25T06:47:00;14.70;83.30
11214;DHT22;5664;48.606;13.456;2024-01-25T06:49:25;14.60;83.20
11214;DHT22;5664;48.606;13.456;2024-01-25T06:51:50;14.60;83.20
11214;DHT22;5664;48.606;13.456;2024-01-25T06:54:16;14.60;83.10
11214;DHT22;5664;48.606;13.456;2024-01-25T06:56:41;14.60;83.10
11214;DHT22;5664;48.606;13.456;2024-01-25T06:59:07;14.60;83.10
11214;DHT22;5664;48.606;13.456;2024-01-25T07:01:33;14.60;83.10
11214;DHT22;5664;48.606;13.456;2024-01-25T07:03:58;14.60;83.10
11214;DHT22;5664;48.606;13.456;2024-01-25T07:06:24;14.60;83.20
11214;DHT22;5664;48.606;13.456;2024-01-25T07:08:49;14.60;83.10
11214;DHT22;5664;48.606;13.456;2024-01-25T07:11:15;14.60;83.20
11214;DHT22;5664;48.606;13.456;2024-01-25T07:13:42;14.60;83.50
11214;DHT22;5664;48.606;13.456;2024-01-25T07:16:07;14.60;83.20
11214;DHT22;5664;48.606;13.456;2024-01-25T07:18:33;14.60;83.30
11214;DHT22;5664;48.606;13.456;2024-01-25T07:20:58;14.60;83.40
11214;DHT22;5664;48.606;13.456;2024-01-25T07:23:24;14.70;83.40
11214;DHT22;5664;48.606;13.456;2024-01-25T07:25:52;14.60;83.40
11214;DHT22;5664;48.606;13.456;2024-01-25T07:28:20;14.50;83.30
11214;DHT22;5664;48.606;13.456;2024-01-25T07:30:46;14.60;83.40
11214;DHT22;5664;48.606;13.456;2024-01-25T07:33:12;14.90;83.70
11214;DHT22;5664;48.606;13.456;2024-01-25T07:35:37;14.60;83.50
11214;DHT22;5664;48.606;13.456;2024-01-25T07:38:07;14.50;83.40
11214;DHT22;5664;48.606;13.456;2024-01-25T07:40:32;14.60;83.40
11214;DHT22;5664;48.606;13.456;2024-01-25T07:42:58;14.60;83.40
11214;DHT22;5664;48.606;13.456;2024-01-25T07:45:23;14.50;83.40
11214;DHT22;5664;48.606;13.456;2024-01-25T07:47:49;14.60;83.50
11214;DHT22;5664;48.606;13.456;2024-01-25T07:50:14;14.50;83.40
11214;DHT22;5664;48.606;13.456;2024-01-25T07:52:40;14.50;83.50
11214;DHT22;5664;48.606;13.456;2024-01-25T07:55:05;14.50;83.40
11214;DHT22;5664;48.606;13.456;2024-01-25T07:57:31;14.60;83.50
11214;DHT22;5664;48.606;13.456;2024-01-25T07:59:56;14.60;83.50
11214;DHT22;5664;48.606;13.456;2024-01-25T08:02:21;14.60;83.50
11214;DHT22;5664;48.606;13.456;2024-01-25T08:04:47;14.50;83.40
11214;DHT22;5664;48.606;13.456;2024-01-25T08:07:12;14.50;83.40
11214;DHT22;5664;48.606;13.456;2024-01-25T08:09:38;14.60;83.40
11214;DHT22;5664;48.606;13.456;2024-01-25T08:12:03;14.60;83.50
11214;DHT22;5664;48.606;13.456;2024-01-25T08:14:29;14.60;83.60
11214;DHT22;5664;48.606;13.456;2024-01-25T08:16:55;14.50;83.40
11214;DHT22;5664;48.606;13.456;2024-01-25T08:19:21;14.50;83.40
11214;DHT22;5664;48.606;13.456;2024-01-25T08:21:46;14.70;83.50
11214;DHT22;5664;48.606;13.456;2024-01-25T08:24:12;14.40;83.40
11214;DHT22;5664;48.606;13.456;2024-01-25T08:26:38;14.50;83.40
11214;DHT22;5664;48.606;13.456;2024-01-25T08:29:03;14.50;83.40
11214;DHT22;5664;48.606;13.456;2024-01-25T08:31:29;14.50;83.40
11214;DHT22;5664;48.606;13.456;2024-01-25T08:33:54;14.10;83.20
11214;DHT22;5664;48.606;13.456;2024-01-25T08:36:20;14.60;83.70
11214;DHT22;5664;48.606;13.456;2024-01-25T08:38:45;14.60;83.60
11214;DHT22;5664;48.606;13.456;2024-01-25T08:41:11;14.50;85.50
11214;DHT22;5664;48.606;13.456;2024-01-25T08:43:36;14.50;83.50
11214;DHT22;5664;48.606;13.456;2024-01-25T08:46:02;14.50;83.60
11214;DHT22;5664;48.606;13.456;2024-01-25T08:48:28;14.50;83.60
11214;DHT22;5664;48.606;13.456;2024-01-25T08:50:54;14.50;83.60
11214;DHT22;5664;48.606;13.456;2024-01-25T08:53:20;14.50;83.70
11214;DHT22;5664;48.606;13.456;2024-01-25T08:55:48;14.60;83.80
11214;DHT22;5664;48.606;13.456;2024-01-25T08:58:13;14.50;83.60
11214;DHT22;5664;48.606;13.456;2024-01-25T09:00:39;14.60;83.70
11214;DHT22;5664;48.606;13.456;2024-01-25T09:03:04;14.60;83.80
11214;DHT22;5664;48.606;13.456;2024-01-25T09:05:31;14.60;83.90
11214;DHT22;5664;48.606;13.456;2024-01-25T09:07:59;14.60;83.80
11214;DHT22;5664;48.606;13.456;2024-01-25T09:10:25;14.60;83.90
11214;DHT22;5664;48.606;13.456;2024-01-25T09:12:50;14.60;83.90
11214;DHT22;5664;48.606;13.456;2024-01-25T09:15:16;14.60;83.90
11214;DHT22;5664;48.606;13.456;2024-01-25T09:17:41;14.60;83.90
11214;DHT22;5664;48.606;13.456;2024-01-25T09:20:07;14.60;83.90
11214;DHT22;5664;48.606;13.456;2024-01-25T09:22:33;14.60;83.80
11214;DHT22;5664;48.606;13.456;2024-01-25T09:24:58;14.60;83.90
11214;DHT22;5664;48.606;13.456;2024-01-25T09:27:24;14.60;83.80
11214;DHT22;5664;48.606;13.456;2024-01-25T09:29:49;14.70;83.90
11214;DHT22;5664;48.606;13.456;2024-01-25T09:32:14;14.60;83.80
11214;DHT22;5664;48.606;13.456;2024-01-25T09:34:40;14.70;83.80
11214;DHT22;5664;48.606;13.456;2024-01-25T09:37:05;14.60;83.80
11214;DHT22;5664;48.606;13.456;2024-01-25T09:39:31;14.70;83.80
11214;DHT22;5664;48.606;13.456;2024-01-25T09:41:57;14.60;83.80
11214;DHT22;5664;48.606;13.456;2024-01-25T09:44:22;14.60;83.90
11214;DHT22;5664;48.606;13.456;2024-01-25T09:46:49;14.60;84.00
11214;DHT22;5664;48.606;13.456;2024-01-25T09:49:14;14.60;84.00
11214;DHT22;5664;48.606;13.456;2024-01-25T09:51:40;14.60;84.10
11214;DHT22;5664;48.606;13.456;2024-01-25T09:54:06;14.60;84.10
11214;DHT22;5664;48.606;13.456;2024-01-25T09:56:32;14.60;84.20
11214;DHT22;5664;48.606;13.456;2024-01-25T09:58:58;14.60;84.20
11214;DHT22;5664;48.606;13.456;2024-01-25T10:01:24;14.60;84.30
11214;DHT22;5664;48.606;13.456;2024-01-25T10:03:49;14.60;84.30
11214;DHT22;5664;48.606;13.456;2024-01-25T10:06:15;14.60;84.40
11214;DHT22;5664;48.606;13.456;2024-01-25T10:08:41;14.50;84.30
11214;DHT22;5664;48.606;13.456;2024-01-25T10:11:06;14.60;84.40
11214;DHT22;5664;48.606;13.456;2024-01-25T10:13:42;14.50;84.30
11214;DHT22;5664;48.606;13.456;2024-01-25T10:16:11;14.60;84.40
11214;DHT22;5664;48.606;13.456;2024-01-25T10:18:38;14.50;84.30
11214;DHT22;5664;48.606;13.456;2024-01-25T10:21:03;14.50;84.30
11214;DHT22;5664;48.606;13.456;2024-01-25T10:23:29;14.50;84.30
11214;DHT22;5664;48.606;13.456;2024-01-25T10:25:55;14.50;84.30
11214;DHT22;5664;48.606;13.456;2024-01-25T10:28:21;14.50;83.60
11214;DHT22;5664;48.606;13.456;2024-01-25T10:30:48;14.50;84.20
11214;DHT22;5664;48.606;13.456;2024-01-25T10:33:14;14.50;84.20
11214;DHT22;5664;48.606;13.456;2024-01-25T10:35:40;14.50;84.20
11214;DHT22;5664;48.606;13.456;2024-01-25T10:38:08;14.50;84.10
11214;DHT22;5664;48.606;13.456;2024-01-25T10:40:33;14.50;84.30
11214;DHT22;5664;48.606;13.456;2024-01-25T10:42:59;14.60;84.30
11214;DHT22;5664;48.606;13.456;2024-01-25T10:45:25;14.50;84.10
11214;DHT22;5664;48.606;13.456;2024-01-25T10:47:50;14.50;84.10
11214;DHT22;5664;48.606;13.456;2024-01-25T10:50:16;14.60;84.20
11214;DHT22;5664;48.606;13.456;2024-01-25T10:52:41;14.60;84.10
11214;DHT22;5664;48.606;13.456;2024-01-25T10:55:07;14.60;84.60
11214;DHT22;5664;48.606;13.456;2024-01-25T10:57:37;14.60;86.10
11214;DHT22;5664;48.606;13.456;2024-01-25T11:00:05;14.70;86.30
11214;DHT22;5664;48.606;13.456;2024-01-25T11:02:34;14.80;86.80
11214;DHT22;5664;48.606;13.456;2024-01-25T11:05:00;14.90;87.10
11214;DHT22;5664;48.606;13.456;2024-01-25T11:07:26;15.00;87.20
11214;DHT22;5664;48.606;13.456;2024-01-25T11:09:52;15.10;87.30
11214;DHT22;5664;48.606;13.456;2024-01-25T11:12:18;15.20;87.40
11214;DHT22;5664;48.606;13.456;2024-01-25T11:14:43;15.40;87.30
11214;DHT22;5664;48.606;13.456;2024-01-25T11:17:18;15.40;87.20
11214;DHT22;5664;48.606;13.456;2024-01-25T11:19:44;15.60;87.00
11214;DHT22;5664;48.606;13.456;2024-01-25T11:22:10;15.90;90.00
11214;DHT22;5664;48.606;13.456;2024-01-25T11:24:37;16.10;86.10
11214;DHT22;5664;48.606;13.456;2024-01-25T11:27:03;16.20;85.10
11214;DHT22;5664;48.606;13.456;2024-01-25T11:29:29;16.30;84.60
11214;DHT22;5664;48.606;13.456;2024-01-25T11:31:55;16.40;84.20
11214;DHT22;5664;48.606;13.456;2024-01-25T11:34:22;16.50;83.90
11214;DHT22;5664;48.606;13.456;2024-01-25T11:36:48;16.50;83.60
11214;DHT22;5664;48.606;13.456;2024-01-25T11:39:15;16.60;83.30
11214;DHT22;5664;48.606;13.456;2024-01-25T11:41:41;16.60;82.90
11214;DHT22;5664;48.606;13.456;2024-01-25T11:44:07;16.70;82.70
11214;DHT22;5664;48.606;13.456;2024-01-25T11:46:34;16.70;82.50
11214;DHT22;5664;48.606;13.456;2024-01-25T11:49:00;16.70;82.30
11214;DHT22;5664;48.606;13.456;2024-01-25T11:51:25;16.80;82.30
11214;DHT22;5664;48.606;13.456;2024-01-25T11:53:51;16.80;82.20
11214;DHT22;5664;48.606;13.456;2024-01-25T11:56:17;16.90;82.10
11214;DHT22;5664;48.606;13.456;2024-01-25T11:58:45;17.00;81.90
11214;DHT22;5664;48.606;13.456;2024-01-25T12:01:10;17.00;81.70
11214;DHT22;5664;48.606;13.456;2024-01-25T12:03:37;17.00;81.50
11214;DHT22;5664;48.606;13.456;2024-01-25T12:06:03;17.10;81.50
11214;DHT22;5664;48.606;13.456;2024-01-25T12:08:31;17.10;81.30
11214;DHT22;5664;48.606;13.456;2024-01-25T12:11:03;17.10;82.00
11214;DHT22;5664;48.606;13.456;2024-01-25T12:13:31;17.20;81.20
11214;DHT22;5664;48.606;13.456;2024-01-25T12:15:57;17.20;81.10
11214;DHT22;5664;48.606;13.456;2024-01-25T12:18:22;17.30;81.00
11214;DHT22;5664;48.606;13.456;2024-01-25T12:20:48;17.30;80.90
11214;DHT22;5664;48.606;13.456;2024-01-25T12:23:13;17.40;80.70
11214;DHT22;5664;48.606;13.456;2024-01-25T12:25:39;17.40;80.50
11214;DHT22;5664;48.606;13.456;2024-01-25T12:28:06;17.50;80.40
11214;DHT22;5664;48.606;13.456;2024-01-25T12:30:31;17.50;80.20
11214;DHT22;5664;48.606;13.456;2024-01-25T12:32:57;17.60;80.00
11214;DHT22;5664;48.606;13.456;2024-01-25T12:35:22;17.70;79.80
11214;DHT22;5664;48.606;13.456;2024-01-25T12:37:48;17.70;79.60
11214;DHT22;5664;48.606;13.456;2024-01-25T12:40:13;17.70;79.40
11214;DHT22;5664;48.606;13.456;2024-01-25T12:42:39;17.70;79.30
11214;DHT22;5664;48.606;13.456;2024-01-25T12:45:04;17.80;79.30
11214;DHT22;5664;48.606;13.456;2024-01-25T12:47:30;17.80;79.20
11214;DHT22;5664;48.606;13.456;2024-01-25T12:49:55;17.80;79.00
11214;DHT22;5664;48.606;13.456;2024-01-25T12:52:21;17.80;79.70
11214;DHT22;5664;48.606;13.456;2024-01-25T12:54:46;17.90;78.80
11214;DHT22;5664;48.606;13.456;2024-01-25T12:57:12;17.90;77.90
11214;DHT22;5664;48.606;13.456;2024-01-25T12:59:37;18.00;78.30
11214;DHT22;5664;48.606;13.456;2024-01-25T13:02:06;18.00;78.10
11214;DHT22;5664;48.606;13.456;2024-01-25T13:04:32;18.00;78.00
11214;DHT22;5664;48.606;13.456;2024-01-25T13:06:57;18.00;77.80
11214;DHT22;5664;48.606;13.456;2024-01-25T13:09:23;18.00;77.90
11214;DHT22;5664;48.606;13.456;2024-01-25T13:11:49;18.00;77.60
11214;DHT22;5664;48.606;13.456;2024-01-25T13:14:15;18.00;77.40
11214;DHT22;5664;48.606;13.456;2024-01-25T13:16:41;18.30;78.40
11214;DHT22;5664;48.606;13.456;2024-01-25T13:19:06;18.00;77.30
11214;DHT22;5664;48.606;13.456;2024-01-25T13:21:32;18.00;77.20
11214;DHT22;5664;48.606;13.456;2024-01-25T13:23:59;18.00;77.30
11214;DHT22;5664;48.606;13.456;2024-01-25T13:26:25;18.00;77.20
11214;DHT22;5664;48.606;13.456;2024-01-25T13:28:50;18.00;77.20
11214;DHT22;5664;48.606;13.456;2024-01-25T13:31:16;18.00;77.20
11214;DHT22;5664;48.606;13.456;2024-01-25T13:33:41;18.00;77.30
11214;DHT22;5664;48.606;13.456;2024-01-25T13:36:07;18.00;77.10
11214;DHT22;5664;48.606;13.456;2024-01-25T13:38:34;17.90;77.10
11214;DHT22;5664;48.606;13.456;2024-01-25T13:40:59;18.00;77.20
11214;DHT22;5664;48.606;13.456;2024-01-25T13:43:25;17.90;77.10
11214;DHT22;5664;48.606;13.456;2024-01-25T13:45:51;17.90;77.10
11214;DHT22;5664;48.606;13.456;2024-01-25T13:48:16;17.90;77.00
11214;DHT22;5664;48.606;13.456;2024-01-25T13:50:44;17.90;77.20
11214;DHT22;5664;48.606;13.456;2024-01-25T13:53:09;17.90;77.10
11214;DHT22;5664;48.606;13.456;2024-01-25T13:55:35;17.90;77.00
11214;DHT22;5664;48.606;13.456;2024-01-25T13:58:00;17.90;77.00
11214;DHT22;5664;48.606;13.456;2024-01-25T14:00:26;17.90;77.00
11214;DHT22;5664;48.606;13.456;2024-01-25T14:02:52;17.90;77.00
11214;DHT22;5664;48.606;13.456;2024-01-25T14:05:18;17.90;77.00
11214;DHT22;5664;48.606;13.456;2024-01-25T14:07:43;17.80;76.90
11214;DHT22;5664;48.606;13.456;2024-01-25T14:10:09;17.80;76.90
11214;DHT22;5664;48.606;13.456;2024-01-25T14:12:35;17.80;76.90
11214;DHT22;5664;48.606;13.456;2024-01-25T14:15:00;17.80;77.00
11214;DHT22;5664;48.606;13.456;2024-01-25T14:17:26;17.80;77.00
11214;DHT22;5664;48.606;13.456;2024-01-25T14:19:53;17.80;77.00
11214;DHT22;5664;48.606;13.456;2024-01-25T14:22:18;17.80;77.00
11214;DHT22;5664;48.606;13.456;2024-01-25T14:24:44;17.80;77.00
11214;DHT22;5664;48.606;13.456;2024-01-25T14:27:09;17.80;77.00
11214;DHT22;5664;48.606;13.456;2024-01-25T14:29:35;17.80;76.90
11214;DHT22;5664;48.606;13.456;2024-01-25T14:32:01;17.80;76.90
11214;DHT22;5664;48.606;13.456;2024-01-25T14:34:27;17.80;76.90
11214;DHT22;5664;48.606;13.456;2024-01-25T14:36:53;17.80;76.90
11214;DHT22;5664;48.606;13.456;2024-01-25T14:39:18;17.80;76.90
11214;DHT22;5664;48.606;13.456;2024-01-25T14:41:44;17.80;76.80
11214;DHT22;5664;48.606;13.456;2024-01-25T14:44:10;17.80;76.80
11214;DHT22;5664;48.606;13.456;2024-01-25T14:46:35;17.80;76.70
11214;DHT22;5664;48.606;13.456;2024-01-25T14:49:01;17.80;76.70
11214;DHT22;5664;48.606;13.456;2024-01-25T14:51:26;17.80;76.60
11214;DHT22;5664;48.606;13.456;2024-01-25T14:53:52;17.80;76.60
11214;DHT22;5664;48.606;13.456;2024-01-25T14:56:17;17.80;76.60
11214;DHT22;5664;48.606;13.456;2024-01-25T14:58:43;17.80;76.60
11214;DHT22;5664;48.606;13.456;2024-01-25T15:01:12;17.80;76.50
11214;DHT22;5664;48.606;13.456;2024-01-25T15:03:37;17.80;76.50
11214;DHT22;5664;48.606;13.456;2024-01-25T15:06:03;17.80;76.50
11214;DHT22;5664;48.606;13.456;2024-01-25T15:08:29;17.80;76.50
11214;DHT22;5664;48.606;13.456;2024-01-25T15:10:54;17.80;76.40
11214;DHT22;5664;48.606;13.456;2024-01-25T15:13:20;17.80;76.50
11214;DHT22;5664;48.606;13.456;2024-01-25T15:15:45;17.80;76.50
11214;DHT22;5664;48.606;13.456;2024-01-25T15:18:10;17.80;76.60
11214;DHT22;5664;48.606;13.456;2024-01-25T15:20:36;17.80;76.50